Time;durP1;ratioP1;P1;durP2;ratioP2;P2;SDS_P1;SDS_P2;PMS_P1;PMS_P2;Temp;Humidity;BMP_temperature;BMP_pressure;BME280_temperature;BME280_humidity;BME280_pressure;Samples;Min_cycle;Max_cycle;Signal;HPM_P1;HPM_P2
2023/07/16 00:00:52;;;;;;;6.15;3.00;;;29.40;88.20;;;;;;5033983;28;20096;-82
2023/07/16 00:03:18;;;;;;;6.50;3.20;;;29.40;88.30;;;;;;5016465;28;20026;-82
2023/07/16 00:05:44;;;;;;;6.55;3.65;;;29.40;88.40;;;;;;5034564;28;20033;-83
2023/07/16 00:08:09;;;;;;;6.90;3.25;;;29.40;88.50;;;;;;5040458;28;20029;-82
2023/07/16 00:10:36;;;;;;;14.88;3.65;;;29.40;88.60;;;;;;5028206;28;20037;-82
2023/07/16 00:13:05;;;;;;;6.43;3.72;;;29.30;88.80;;;;;;5033373;28;20034;-83
2023/07/16 00:15:30;;;;;;;6.43;3.38;;;29.30;88.90;;;;;;5033046;28;20064;-83
2023/07/16 00:17:56;;;;;;;7.05;3.65;;;29.30;89.10;;;;;;5024750;28;20049;-83
2023/07/16 00:20:25;;;;;;;7.40;3.67;;;29.20;89.20;;;;;;5016224;28;20477;-83
2023/07/16 00:22:51;;;;;;;11.05;3.40;;;29.20;89.20;;;;;;5042136;28;20170;-83
2023/07/16 00:25:17;;;;;;;9.25;4.20;;;29.20;89.40;;;;;;5016463;28;20037;-83
2023/07/16 00:27:43;;;;;;;7.10;3.58;;;29.20;89.40;;;;;;5035168;28;20029;-82
2023/07/16 00:30:09;;;;;;;5.55;3.33;;;29.10;89.30;;;;;;5033049;28;20095;-83
2023/07/16 00:32:35;;;;;;;6.78;3.60;;;29.20;89.40;;;;;;5041345;28;20052;-83
2023/07/16 00:35:05;;;;;;;9.75;3.58;;;29.10;89.40;;;;;;5016346;28;20030;-82
2023/07/16 00:37:34;;;;;;;5.47;3.05;;;29.10;89.60;;;;;;5037448;28;20025;-82
2023/07/16 00:39:59;;;;;;;5.68;3.10;;;29.00;89.70;;;;;;5048712;28;20432;-82
2023/07/16 00:42:25;;;;;;;4.97;3.22;;;29.00;90.20;;;;;;5040054;28;20025;-81
2023/07/16 00:44:51;;;;;;;10.40;3.20;;;29.00;90.00;;;;;;5035290;28;20524;-82
2023/07/16 00:47:16;;;;;;;6.18;3.40;;;29.00;90.10;;;;;;5021310;28;20370;-82
2023/07/16 00:49:42;;;;;;;4.75;2.83;;;29.00;90.10;;;;;;5047950;28;20048;-82
2023/07/16 00:52:14;;;;;;;5.88;3.33;;;29.00;90.20;;;;;;5033144;28;20025;-82
2023/07/16 00:54:40;;;;;;;6.22;3.22;;;29.00;90.20;;;;;;5033067;28;20030;-82
2023/07/16 00:57:06;;;;;;;8.02;3.45;;;29.00;90.30;;;;;;5042183;28;20029;-82
2023/07/16 00:59:32;;;;;;;8.10;3.58;;;29.00;90.20;;;;;;5036640;28;20053;-82
2023/07/16 01:01:58;;;;;;;6.25;3.70;;;29.00;90.30;;;;;;5032111;28;20036;-82
2023/07/16 01:04:24;;;;;;;4.65;3.08;;;29.00;90.30;;;;;;5015070;28;20405;-82
2023/07/16 01:06:53;;;;;;;8.50;3.60;;;29.00;90.30;;;;;;5035314;28;20036;-82
2023/07/16 01:09:20;;;;;;;7.93;3.10;;;29.00;90.40;;;;;;5033187;28;20048;-82
2023/07/16 01:11:47;;;;;;;4.57;3.20;;;28.90;90.50;;;;;;5032754;28;20373;-82
2023/07/16 01:14:16;;;;;;;6.25;2.95;;;28.90;90.50;;;;;;5014978;28;20554;-82
2023/07/16 01:16:42;;;;;;;4.45;2.80;;;28.90;90.60;;;;;;5033420;28;20017;-82
2023/07/16 01:19:09;;;;;;;7.28;3.28;;;29.00;90.70;;;;;;5025640;28;20021;-81
2023/07/16 01:22:01;;;;;;;6.15;3.30;;;28.90;90.70;;;;;;5043960;28;20043;-82
2023/07/16 01:24:57;;;;;;;5.97;2.65;;;28.80;90.80;;;;;;5032509;28;20025;-83
2023/07/16 01:27:57;;;;;;;5.88;2.90;;;28.80;90.90;;;;;;5037829;28;20033;-82
2023/07/16 01:30:25;;;;;;;5.97;3.25;;;28.80;91.00;;;;;;5015202;28;20045;-81
2023/07/16 01:32:52;;;;;;;7.13;3.35;;;28.80;91.00;;;;;;5030512;28;20041;-81
2023/07/16 01:35:18;;;;;;;4.97;2.97;;;28.80;91.10;;;;;;5032546;28;20041;-82
2023/07/16 01:37:44;;;;;;;7.10;3.17;;;28.80;91.10;;;;;;5036799;28;20032;-81
2023/07/16 01:40:11;;;;;;;7.03;3.60;;;28.80;91.10;;;;;;5017550;28;20022;-81
2023/07/16 01:42:37;;;;;;;7.80;3.40;;;28.80;91.10;;;;;;5033483;28;20496;-81
2023/07/16 01:45:03;;;;;;;8.55;3.63;;;28.80;91.10;;;;;;5033104;28;20523;-80
2023/07/16 01:47:47;;;;;;;8.50;3.90;;;28.80;91.10;;;;;;5049791;28;20064;-80
2023/07/16 01:50:13;;;;;;;5.15;3.58;;;28.80;91.10;;;;;;5022251;28;20041;-81
2023/07/16 01:52:39;;;;;;;9.40;3.83;;;28.70;91.10;;;;;;5032573;28;20075;-81
2023/07/16 01:55:05;;;;;;;8.25;3.70;;;28.70;91.20;;;;;;5032551;28;20083;-81
2023/07/16 01:57:30;;;;;;;10.50;3.58;;;28.70;91.20;;;;;;5030363;28;20068;-81
2023/07/16 01:59:56;;;;;;;5.70;3.47;;;28.70;91.30;;;;;;5036105;28;20061;-82
2023/07/16 02:02:22;;;;;;;4.80;3.25;;;28.70;91.20;;;;;;5037685;28;20053;-82
2023/07/16 02:04:47;;;;;;;6.25;3.20;;;28.70;91.20;;;;;;5036314;28;20033;-81
2023/07/16 02:07:13;;;;;;;8.32;3.92;;;28.60;91.10;;;;;;5040514;28;20064;-81
2023/07/16 02:09:40;;;;;;;6.78;3.53;;;28.60;91.20;;;;;;5036541;28;20083;-81
2023/07/16 02:12:06;;;;;;;7.68;4.38;;;28.60;91.20;;;;;;5036537;28;20067;-81
2023/07/16 02:14:32;;;;;;;7.30;3.63;;;28.60;91.20;;;;;;5035570;28;20056;-82
2023/07/16 02:16:57;;;;;;;5.88;3.30;;;28.60;91.20;;;;;;5043068;28;20025;-81
2023/07/16 02:19:25;;;;;;;5.32;3.88;;;28.60;91.20;;;;;;5041946;28;20358;-81
2023/07/16 02:21:51;;;;;;;7.10;3.67;;;28.50;91.20;;;;;;5035751;28;20033;-81
2023/07/16 02:24:16;;;;;;;6.63;3.47;;;28.50;91.30;;;;;;5035951;28;20037;-81
2023/07/16 02:26:42;;;;;;;3.97;2.97;;;28.50;91.40;;;;;;5034935;28;20377;-81
2023/07/16 02:29:08;;;;;;;5.50;3.30;;;28.50;91.40;;;;;;5036101;28;20397;-81
2023/07/16 02:31:36;;;;;;;7.63;3.97;;;28.50;91.60;;;;;;5036301;28;20432;-83
2023/07/16 02:34:02;;;;;;;7.35;3.30;;;28.50;91.60;;;;;;5035505;28;20049;-83
2023/07/16 02:36:27;;;;;;;5.40;2.97;;;28.50;91.60;;;;;;5020820;28;20039;-83
2023/07/16 02:38:53;;;;;;;6.43;2.97;;;28.50;91.70;;;;;;5026814;28;20036;-83
2023/07/16 02:41:19;;;;;;;6.03;3.50;;;28.50;91.70;;;;;;5034949;28;20421;-84
2023/07/16 02:43:46;;;;;;;5.20;3.67;;;28.50;91.80;;;;;;5035673;28;20495;-83
2023/07/16 02:46:12;;;;;;;7.28;3.30;;;28.50;91.80;;;;;;5035299;28;20065;-83
2023/07/16 02:48:38;;;;;;;8.23;3.95;;;28.50;92.00;;;;;;5036383;28;20071;-83
2023/07/16 02:51:03;;;;;;;7.25;3.90;;;28.50;92.10;;;;;;5034940;28;20473;-83
2023/07/16 02:53:29;;;;;;;4.75;3.20;;;28.50;92.20;;;;;;5036138;28;20037;-82
2023/07/16 02:55:55;;;;;;;5.30;3.78;;;28.50;92.30;;;;;;5034736;28;20037;-83
2023/07/16 02:58:20;;;;;;;6.28;3.20;;;28.50;92.40;;;;;;5046188;28;20041;-82
2023/07/16 03:00:46;;;;;;;4.68;3.33;;;28.40;92.40;;;;;;5035382;28;20041;-82
2023/07/16 03:03:12;;;;;;;7.57;3.25;;;28.50;92.50;;;;;;5035039;28;20033;-82
2023/07/16 03:05:38;;;;;;;9.68;4.03;;;28.50;92.60;;;;;;5035104;28;20100;-82
2023/07/16 03:08:04;;;;;;;8.68;4.38;;;28.50;92.70;;;;;;5036548;28;20029;-82
2023/07/16 03:10:29;;;;;;;6.65;3.00;;;28.40;92.70;;;;;;5033898;28;20029;-81
2023/07/16 03:12:55;;;;;;;9.40;3.63;;;28.40;92.80;;;;;;5026211;28;20053;-82
2023/07/16 03:15:21;;;;;;;4.75;3.40;;;28.40;92.90;;;;;;5035113;28;20029;-82
2023/07/16 03:17:46;;;;;;;5.05;3.67;;;28.50;93.00;;;;;;5037190;28;20040;-82
2023/07/16 03:20:13;;;;;;;6.72;3.75;;;28.40;92.90;;;;;;5035405;28;20030;-81
2023/07/16 03:22:38;;;;;;;6.75;3.80;;;28.50;93.00;;;;;;5034969;28;20036;-81
2023/07/16 03:25:05;;;;;;;5.40;3.45;;;28.50;93.00;;;;;;5035089;28;20033;-81
2023/07/16 03:27:31;;;;;;;7.30;3.80;;;28.40;93.00;;;;;;5043940;28;20037;-81
2023/07/16 03:29:57;;;;;;;9.75;5.47;;;28.40;93.00;;;;;;5036610;28;20103;-81
2023/07/16 03:32:22;;;;;;;8.00;4.20;;;28.40;93.00;;;;;;5035590;28;20025;-82
2023/07/16 03:34:48;;;;;;;8.15;3.83;;;28.40;93.10;;;;;;5035314;28;20406;-82
2023/07/16 03:37:14;;;;;;;9.48;3.60;;;28.40;93.10;;;;;;5036127;28;20489;-82
2023/07/16 03:39:39;;;;;;;7.25;4.18;;;28.40;93.10;;;;;;5034551;28;20029;-82
2023/07/16 03:42:05;;;;;;;9.32;4.18;;;28.30;93.20;;;;;;5034238;28;20044;-83
2023/07/16 03:44:31;;;;;;;6.65;3.53;;;28.30;93.20;;;;;;5034837;28;20496;-83
2023/07/16 03:46:56;;;;;;;9.55;4.00;;;28.30;93.20;;;;;;5016866;28;20037;-83
2023/07/16 03:49:22;;;;;;;9.68;4.35;;;28.30;93.00;;;;;;5034562;28;20044;-83
2023/07/16 03:51:48;;;;;;;8.98;4.60;;;28.30;93.10;;;;;;5035577;28;20421;-83
2023/07/16 03:54:13;;;;;;;11.00;4.70;;;28.30;92.90;;;;;;5016534;28;20031;-82
2023/07/16 03:56:39;;;;;;;8.00;4.80;;;28.30;92.90;;;;;;5034744;28;20469;-83
2023/07/16 03:59:05;;;;;;;6.22;4.38;;;28.20;92.80;;;;;;5043332;28;20075;-83
2023/07/16 04:01:30;;;;;;;11.43;6.82;;;28.20;93.00;;;;;;5033774;28;20373;-83
2023/07/16 04:03:56;;;;;;;8.30;5.28;;;28.10;92.70;;;;;;5033265;28;20025;-83
2023/07/16 04:06:22;;;;;;;14.18;7.65;;;28.00;92.50;;;;;;5034627;28;20458;-84
2023/07/16 04:08:47;;;;;;;11.27;5.85;;;27.90;92.40;;;;;;5034728;28;20051;-83
2023/07/16 04:11:13;;;;;;;10.93;6.18;;;27.80;92.30;;;;;;5034066;28;20061;-83
2023/07/16 04:13:39;;;;;;;9.05;5.63;;;27.80;92.30;;;;;;5032936;28;20025;-82
2023/07/16 04:16:04;;;;;;;13.60;5.50;;;27.70;92.40;;;;;;5033452;28;20064;-82
2023/07/16 04:18:30;;;;;;;7.47;5.57;;;27.70;92.30;;;;;;5034605;28;20029;-82
2023/07/16 04:20:56;;;;;;;8.20;5.70;;;27.70;92.30;;;;;;5032917;28;20026;-82
2023/07/16 04:23:22;;;;;;;9.77;5.28;;;27.70;92.50;;;;;;5017392;28;20458;-82
2023/07/16 04:25:53;;;;;;;8.35;5.60;;;27.70;92.20;;;;;;5015899;28;20044;-83
2023/07/16 04:28:18;;;;;;;11.02;5.40;;;27.80;92.30;;;;;;5029826;28;20112;-82
2023/07/16 04:30:44;;;;;;;9.85;6.00;;;27.70;92.40;;;;;;5034016;28;20129;-81
2023/07/16 04:33:10;;;;;;;7.80;5.15;;;27.70;92.50;;;;;;5035004;28;20406;-81
2023/07/16 04:35:35;;;;;;;11.02;5.30;;;27.70;92.50;;;;;;5033534;28;20042;-81
2023/07/16 04:38:01;;;;;;;11.32;5.90;;;27.70;92.60;;;;;;5032275;28;20028;-81
2023/07/16 04:40:30;;;;;;;9.57;4.95;;;27.70;92.70;;;;;;5033477;28;20068;-83
2023/07/16 04:42:56;;;;;;;8.68;5.53;;;27.70;92.70;;;;;;5033452;28;20021;-82
2023/07/16 04:45:22;;;;;;;9.48;4.97;;;27.70;92.80;;;;;;5015714;28;20458;-81
2023/07/16 04:47:48;;;;;;;7.65;4.80;;;27.70;92.90;;;;;;5041379;28;20107;-81
2023/07/16 04:50:13;;;;;;;5.60;4.75;;;27.70;93.00;;;;;;5033132;28;20029;-82
2023/07/16 04:52:39;;;;;;;9.98;5.88;;;27.70;93.00;;;;;;5034807;28;20383;-81
2023/07/16 04:55:06;;;;;;;12.38;4.68;;;27.70;93.00;;;;;;5034305;28;20037;-82
2023/07/16 04:57:39;;;;;;;9.35;5.25;;;27.70;93.10;;;;;;5014530;28;20116;-82
2023/07/16 05:00:05;;;;;;;8.70;4.68;;;27.80;93.10;;;;;;5015442;28;20033;-82
2023/07/16 05:02:34;;;;;;;7.90;4.47;;;27.80;93.20;;;;;;5033008;28;20018;-82
2023/07/16 05:05:10;;;;;;;9.75;4.85;;;27.80;93.20;;;;;;5015602;28;20485;-81
2023/07/16 05:07:36;;;;;;;7.10;4.47;;;27.80;93.20;;;;;;5032270;28;20033;-81
2023/07/16 05:10:01;;;;;;;6.95;4.35;;;27.80;93.10;;;;;;5032218;28;20489;-81
2023/07/16 05:12:27;;;;;;;7.80;5.10;;;27.80;93.10;;;;;;5032256;28;20025;-80
2023/07/16 05:14:53;;;;;;;7.82;4.95;;;27.70;93.10;;;;;;5032648;28;20492;-79
2023/07/16 05:17:23;;;;;;;10.65;4.80;;;27.70;93.10;;;;;;5038981;28;20479;-78
2023/07/16 05:19:48;;;;;;;5.50;4.47;;;27.70;93.10;;;;;;5018934;28;20026;-79
2023/07/16 05:22:14;;;;;;;7.35;4.45;;;27.70;93.10;;;;;;5014946;28;20021;-80
2023/07/16 05:24:40;;;;;;;10.25;4.75;;;27.70;93.10;;;;;;5033119;28;20416;-80
2023/07/16 05:27:06;;;;;;;11.70;4.72;;;27.80;93.20;;;;;;5013072;28;20124;-79
2023/07/16 05:29:33;;;;;;;6.75;4.60;;;27.80;93.00;;;;;;5016820;28;20041;-79
2023/07/16 05:31:59;;;;;;;7.75;5.00;;;27.90;93.10;;;;;;5029785;28;20030;-79
2023/07/16 05:34:25;;;;;;;7.80;4.60;;;27.90;93.00;;;;;;5036513;28;20129;-78
2023/07/16 05:36:54;;;;;;;7.32;5.03;;;28.00;93.00;;;;;;5035424;28;20160;-79
2023/07/16 05:39:23;;;;;;;11.50;6.30;;;28.10;93.00;;;;;;5027159;28;20038;-79
2023/07/16 05:41:48;;;;;;;8.65;5.97;;;28.10;92.80;;;;;;5035698;28;20032;-79
2023/07/16 05:44:14;;;;;;;16.02;7.57;;;28.10;92.90;;;;;;5018390;28;20112;-79
2023/07/16 05:46:41;;;;;;;12.30;6.85;;;28.10;92.90;;;;;;5012894;28;20033;-79
2023/07/16 05:49:26;;;;;;;9.73;6.65;;;28.10;92.90;;;;;;5014555;28;20166;-80
2023/07/16 05:51:54;;;;;;;12.23;6.45;;;28.10;92.90;;;;;;5015061;28;20072;-79
2023/07/16 05:54:19;;;;;;;13.57;6.80;;;28.10;92.90;;;;;;5014153;28;20060;-78
2023/07/16 05:56:45;;;;;;;13.05;6.68;;;28.10;93.00;;;;;;5031518;28;20092;-79
2023/07/16 05:59:11;;;;;;;10.40;6.40;;;28.10;93.00;;;;;;5031137;28;20025;-82
2023/07/16 06:01:36;;;;;;;11.55;6.85;;;28.20;93.10;;;;;;5024227;28;20063;-80
2023/07/16 06:04:02;;;;;;;10.60;6.72;;;28.20;93.10;;;;;;5038472;28;20570;-80
2023/07/16 06:06:29;;;;;;;13.13;7.15;;;28.20;93.20;;;;;;5034962;28;20029;-80
2023/07/16 06:08:54;;;;;;;9.32;5.95;;;28.20;93.20;;;;;;5036328;28;20506;-80
2023/07/16 06:11:20;;;;;;;12.93;6.93;;;28.30;93.20;;;;;;5036803;28;20105;-80
2023/07/16 06:13:46;;;;;;;10.93;6.20;;;28.30;93.30;;;;;;5026094;28;20025;-80
2023/07/16 06:16:11;;;;;;;13.10;6.45;;;28.30;93.30;;;;;;5055808;28;20033;-80
2023/07/16 06:18:37;;;;;;;13.30;6.22;;;28.30;93.40;;;;;;5056285;28;20025;-80
2023/07/16 06:21:03;;;;;;;12.73;6.18;;;28.40;93.50;;;;;;5022095;28;20105;-80
2023/07/16 06:23:29;;;;;;;12.02;5.50;;;28.40;93.60;;;;;;5023617;28;20032;-80
2023/07/16 06:25:55;;;;;;;13.20;6.30;;;28.40;93.60;;;;;;5029974;28;20026;-81
2023/07/16 06:28:22;;;;;;;11.05;5.15;;;28.50;93.70;;;;;;5041992;28;20041;-81
2023/07/16 06:30:47;;;;;;;10.65;5.07;;;28.50;93.70;;;;;;5034332;28;20018;-81
2023/07/16 06:33:13;;;;;;;6.90;4.28;;;28.60;93.80;;;;;;5034141;28;20143;-81
2023/07/16 06:35:39;;;;;;;7.88;4.28;;;28.70;93.90;;;;;;5008881;28;20037;-81
2023/07/16 06:38:04;;;;;;;6.93;3.75;;;28.70;93.90;;;;;;5032349;28;20385;-81
2023/07/16 06:40:30;;;;;;;5.60;3.58;;;28.70;93.90;;;;;;5032933;28;20030;-82
2023/07/16 06:42:57;;;;;;;6.97;3.45;;;28.80;94.10;;;;;;5013339;28;20021;-82
2023/07/16 06:45:22;;;;;;;6.00;3.67;;;28.80;94.00;;;;;;5017189;28;20026;-81
2023/07/16 06:47:48;;;;;;;7.07;3.30;;;28.90;94.20;;;;;;5030546;28;20032;-81
2023/07/16 06:50:14;;;;;;;7.38;3.72;;;29.00;94.10;;;;;;5033106;28;20080;-81
2023/07/16 06:52:40;;;;;;;9.57;3.60;;;29.00;94.00;;;;;;5027050;28;20717;-81
2023/07/16 06:55:06;;;;;;;5.18;3.28;;;29.00;94.10;;;;;;5028539;28;20083;-81
2023/07/16 06:57:32;;;;;;;5.97;3.78;;;29.10;94.00;;;;;;5016929;28;20034;-82
2023/07/16 06:59:57;;;;;;;4.05;3.08;;;29.10;93.90;;;;;;5022176;28;20358;-82
2023/07/16 07:02:23;;;;;;;5.63;3.30;;;29.20;93.90;;;;;;5023045;28;20022;-82
2023/07/16 07:04:50;;;;;;;7.18;3.20;;;29.20;93.90;;;;;;5033709;28;20491;-82
2023/07/16 07:07:15;;;;;;;7.40;3.83;;;29.30;93.80;;;;;;5033544;28;20037;-82
2023/07/16 07:09:41;;;;;;;6.00;3.42;;;29.40;93.70;;;;;;5035209;28;20041;-81
2023/07/16 07:12:07;;;;;;;7.15;3.17;;;29.40;93.50;;;;;;5034558;28;20503;-81
2023/07/16 07:14:33;;;;;;;9.50;3.38;;;29.50;93.40;;;;;;5035831;28;20477;-81
2023/07/16 07:16:59;;;;;;;8.07;3.97;;;29.50;93.20;;;;;;5035400;28;20028;-81
2023/07/16 07:19:25;;;;;;;5.57;3.17;;;29.50;93.10;;;;;;5023851;28;20401;-81
2023/07/16 07:21:50;;;;;;;6.10;3.33;;;29.60;93.00;;;;;;5032448;28;20377;-82
2023/07/16 07:24:19;;;;;;;6.43;2.88;;;29.60;93.00;;;;;;5037546;28;20030;-82
2023/07/16 07:26:44;;;;;;;5.50;3.17;;;29.60;92.90;;;;;;5020738;28;20029;-82
2023/07/16 07:29:10;;;;;;;6.60;3.33;;;29.60;92.70;;;;;;5021231;28;20358;-82
2023/07/16 07:31:36;;;;;;;7.75;3.33;;;29.60;92.50;;;;;;5028632;28;20069;-82
2023/07/16 07:34:02;;;;;;;4.85;3.33;;;29.60;92.50;;;;;;5010656;28;20045;-82
2023/07/16 07:36:28;;;;;;;4.90;2.90;;;29.60;92.70;;;;;;5034291;28;20045;-82
2023/07/16 07:38:54;;;;;;;9.30;3.40;;;29.70;92.60;;;;;;5033147;28;20025;-82
2023/07/16 07:41:20;;;;;;;6.10;3.00;;;29.70;92.50;;;;;;5033665;28;20481;-82
2023/07/16 07:43:45;;;;;;;6.60;3.15;;;29.70;92.60;;;;;;5034203;28;20503;-82
2023/07/16 07:46:11;;;;;;;8.65;3.30;;;29.80;92.00;;;;;;5033712;28;20076;-82
2023/07/16 07:48:37;;;;;;;7.90;3.50;;;29.80;92.20;;;;;;5028222;28;20030;-82
2023/07/16 07:51:06;;;;;;;6.63;2.90;;;29.80;92.10;;;;;;5027416;28;20516;-82
2023/07/16 07:53:32;;;;;;;4.85;3.30;;;29.90;92.20;;;;;;5030980;28;20039;-82
2023/07/16 07:55:57;;;;;;;5.95;3.25;;;29.90;92.20;;;;;;5042429;28;20036;-82
2023/07/16 07:58:23;;;;;;;5.10;2.85;;;30.00;92.00;;;;;;5021651;28;20034;-82
2023/07/16 08:00:49;;;;;;;7.15;3.63;;;30.00;91.90;;;;;;5032357;28;20033;-82
2023/07/16 08:03:32;;;;;;;4.15;2.90;;;30.10;91.90;;;;;;5040338;28;20018;-82
2023/07/16 08:05:58;;;;;;;4.60;3.08;;;30.20;91.90;;;;;;5018940;28;20033;-81
2023/07/16 08:08:24;;;;;;;7.60;3.03;;;30.30;91.80;;;;;;5020201;28;20028;-82
2023/07/16 08:10:50;;;;;;;8.82;3.13;;;30.30;91.60;;;;;;5020712;28;20112;-82
2023/07/16 08:13:16;;;;;;;6.22;2.83;;;30.40;91.50;;;;;;5033512;28;20099;-82
2023/07/16 08:15:41;;;;;;;6.38;2.97;;;30.40;91.50;;;;;;5042473;28;20033;-80
2023/07/16 08:18:07;;;;;;;5.45;2.53;;;30.50;91.60;;;;;;5045140;28;20021;-81
2023/07/16 08:20:33;;;;;;;7.22;2.90;;;30.50;91.60;;;;;;5035746;28;20116;-81
2023/07/16 08:22:58;;;;;;;6.10;3.25;;;30.60;91.50;;;;;;5039143;28;20029;-80
2023/07/16 08:25:25;;;;;;;5.30;3.20;;;30.70;91.50;;;;;;5046657;28;20029;-81
2023/07/16 08:27:51;;;;;;;6.78;3.22;;;30.70;91.50;;;;;;5035277;28;20363;-81
2023/07/16 08:30:16;;;;;;;6.40;2.83;;;30.80;91.40;;;;;;5040222;28;20040;-81
2023/07/16 08:32:42;;;;;;;7.93;3.20;;;30.90;91.30;;;;;;5033024;28;20398;-81
2023/07/16 08:35:15;;;;;;;4.63;2.50;;;30.90;91.10;;;;;;5027018;28;20084;-80
2023/07/16 08:37:41;;;;;;;5.07;2.83;;;31.00;90.90;;;;;;5027578;28;20036;-81
2023/07/16 08:40:09;;;;;;;10.45;3.60;;;31.00;90.80;;;;;;5032633;28;20022;-81
2023/07/16 08:42:37;;;;;;;6.47;3.00;;;31.00;90.50;;;;;;5023744;28;20060;-82
2023/07/16 08:45:09;;;;;;;4.95;2.63;;;31.00;90.60;;;;;;5045599;28;20369;-82
2023/07/16 08:47:36;;;;;;;11.95;3.45;;;31.10;90.60;;;;;;5007683;28;20034;-82
2023/07/16 08:50:02;;;;;;;5.40;2.75;;;31.10;90.30;;;;;;5027231;28;20056;-83
2023/07/16 08:52:28;;;;;;;8.23;3.30;;;31.20;90.40;;;;;;5025784;28;20116;-82
2023/07/16 08:54:55;;;;;;;6.00;2.80;;;31.20;90.50;;;;;;5028348;28;20053;-82
2023/07/16 08:57:21;;;;;;;4.57;2.53;;;31.30;90.30;;;;;;5029144;28;20029;-81
2023/07/16 08:59:51;;;;;;;7.88;3.00;;;31.40;90.20;;;;;;5010392;28;20473;-82
2023/07/16 09:02:20;;;;;;;6.05;2.88;;;31.40;90.30;;;;;;5032641;28;20487;-81
2023/07/16 09:04:51;;;;;;;5.00;2.87;;;31.50;90.20;;;;;;5029686;28;20029;-83
2023/07/16 09:07:17;;;;;;;4.82;2.75;;;31.60;90.10;;;;;;5010035;28;20367;-83
2023/07/16 09:09:43;;;;;;;6.88;2.70;;;31.60;89.70;;;;;;5031495;28;20097;-82
2023/07/16 09:12:12;;;;;;;5.85;3.33;;;31.70;89.20;;;;;;5032973;28;20038;-83
2023/07/16 09:14:41;;;;;;;6.70;2.80;;;31.80;89.40;;;;;;5030400;28;20104;-82
2023/07/16 09:17:21;;;;;;;6.22;3.00;;;31.90;89.20;;;;;;5016813;28;20481;-82
2023/07/16 09:20:02;;;;;;;3.90;2.70;;;32.00;88.80;;;;;;5014691;28;20045;-81
2023/07/16 09:22:29;;;;;;;6.25;2.50;;;32.00;88.20;;;;;;5031548;28;20607;-82
2023/07/16 09:25:40;;;;;;;5.25;2.75;;;32.00;88.10;;;;;;5030770;28;20029;-81
2023/07/16 09:28:08;;;;;;;8.60;3.08;;;32.10;88.50;;;;;;5014745;28;20053;-82
2023/07/16 09:34:01;;;;;;;5.60;2.30;;;32.20;87.40;;;;;;4983772;28;20144;-80
2023/07/16 09:36:28;;;;;;;4.40;2.60;;;32.30;87.50;;;;;;5005722;28;20054;-81
2023/07/16 09:38:54;;;;;;;3.90;2.67;;;32.40;87.30;;;;;;5014096;28;20378;-82
2023/07/16 09:41:21;;;;;;;4.78;2.85;;;32.40;87.00;;;;;;5016282;28;20579;-80
2023/07/16 09:43:47;;;;;;;5.38;2.60;;;32.50;86.60;;;;;;5006950;28;20022;-81
2023/07/16 09:46:13;;;;;;;6.63;2.80;;;32.60;86.30;;;;;;5001721;28;20474;-80
2023/07/16 09:48:39;;;;;;;3.53;2.90;;;32.60;86.00;;;;;;5005437;28;20179;-81
2023/07/16 09:51:12;;;;;;;6.60;2.78;;;32.70;85.80;;;;;;4984060;28;20037;-80
2023/07/16 09:53:42;;;;;;;6.38;2.72;;;32.70;85.00;;;;;;5001026;28;20087;-80
2023/07/16 09:56:11;;;;;;;7.53;3.15;;;32.80;84.80;;;;;;5001939;28;20036;-81
2023/07/16 09:58:38;;;;;;;13.27;3.55;;;32.90;84.50;;;;;;5006769;28;20018;-80
2023/07/16 10:01:04;;;;;;;6.78;3.05;;;33.00;84.00;;;;;;4989140;28;20054;-81
2023/07/16 10:03:30;;;;;;;7.70;3.05;;;33.00;83.60;;;;;;5007145;28;20025;-81
2023/07/16 10:06:06;;;;;;;4.80;2.60;;;33.10;83.50;;;;;;4998972;28;20030;-81
2023/07/16 10:08:34;;;;;;;7.38;3.13;;;33.20;82.60;;;;;;4995609;28;20039;-80
2023/07/16 10:11:00;;;;;;;5.82;2.53;;;33.30;82.30;;;;;;5007176;28;20033;-84
2023/07/16 10:13:26;;;;;;;7.47;2.95;;;33.40;82.10;;;;;;5013254;28;20092;-81
2023/07/16 10:15:57;;;;;;;7.95;3.15;;;33.50;82.70;;;;;;5017659;28;20084;-86
2023/07/16 10:18:27;;;;;;;9.48;3.05;;;33.60;81.90;;;;;;5015228;28;20018;-85
2023/07/16 10:20:53;;;;;;;9.48;2.90;;;33.70;81.30;;;;;;4998253;28;20482;-85
2023/07/16 10:23:19;;;;;;;7.20;3.00;;;33.80;81.00;;;;;;5016309;28;20080;-85
2023/07/16 10:26:05;;;;;;;6.47;2.90;;;33.80;80.80;;;;;;5023362;28;20026;-84
2023/07/16 10:28:34;;;;;;;4.38;2.65;;;34.00;80.20;;;;;;5021148;28;20021;-83
2023/07/16 10:31:00;;;;;;;8.60;2.90;;;34.00;80.10;;;;;;5020137;28;20459;-83
2023/07/16 10:33:25;;;;;;;8.10;3.28;;;34.10;79.90;;;;;;4996435;28;20074;-83
2023/07/16 10:35:51;;;;;;;7.50;2.47;;;34.20;79.80;;;;;;5008985;28;20053;-83
2023/07/16 10:38:17;;;;;;;5.45;2.92;;;34.30;79.40;;;;;;5008617;28;20035;-84
2023/07/16 10:40:44;;;;;;;5.43;2.70;;;34.30;79.10;;;;;;5005707;28;20034;-85
2023/07/16 10:43:10;;;;;;;8.43;2.83;;;34.40;78.80;;;;;;5000460;28;20072;-86
2023/07/16 10:45:37;;;;;;;8.88;2.70;;;34.50;79.10;;;;;;5014047;28;20478;-86
2023/07/16 10:48:02;;;;;;;4.45;2.60;;;34.70;79.00;;;;;;4991401;28;20030;-85
2023/07/16 10:50:28;;;;;;;6.85;2.72;;;34.90;78.50;;;;;;4978927;28;20042;-85
2023/07/16 10:52:55;;;;;;;4.78;2.67;;;35.00;78.00;;;;;;4990511;28;20041;-85
2023/07/16 10:55:22;;;;;;;8.65;3.00;;;35.10;77.70;;;;;;5009742;28;20121;-86
2023/07/16 10:57:49;;;;;;;7.55;3.50;;;35.30;77.40;;;;;;5011637;28;20146;-86
2023/07/16 11:00:16;;;;;;;6.63;3.10;;;35.40;77.20;;;;;;5013932;28;20053;-85
2023/07/16 11:02:43;;;;;;;6.53;2.75;;;35.60;76.50;;;;;;4998183;28;20022;-83
2023/07/16 11:05:16;;;;;;;9.70;2.90;;;35.70;76.00;;;;;;5007022;28;20056;-82
2023/07/16 11:07:47;;;;;;;8.77;3.17;;;35.80;75.10;;;;;;4997530;28;20109;-83
2023/07/16 11:10:15;;;;;;;7.40;2.83;;;35.90;74.60;;;;;;5012375;28;20120;-83
2023/07/16 11:12:42;;;;;;;5.65;2.80;;;36.00;74.30;;;;;;5010823;28;20036;-87
2023/07/16 11:15:08;;;;;;;7.00;2.92;;;36.10;74.10;;;;;;5011094;28;20045;-87
2023/07/16 11:17:36;;;;;;;5.65;3.10;;;36.20;74.00;;;;;;5007201;28;20029;-83
2023/07/16 11:20:04;;;;;;;8.30;2.72;;;36.30;73.10;;;;;;5003271;28;20029;-84
2023/07/16 11:22:35;;;;;;;6.82;2.92;;;36.40;73.30;;;;;;5010072;28;20014;-82
2023/07/16 11:25:01;;;;;;;5.57;3.05;;;36.60;73.60;;;;;;5012626;28;20026;-87
2023/07/16 11:27:29;;;;;;;8.73;3.08;;;36.70;72.80;;;;;;5011010;28;20029;-87
2023/07/16 11:29:59;;;;;;;4.23;3.20;;;36.80;72.20;;;;;;5013309;28;20030;-87
2023/07/16 11:32:34;;;;;;;5.30;2.35;;;36.90;72.00;;;;;;5014682;28;20441;-86
2023/07/16 11:35:02;;;;;;;7.20;2.80;;;37.10;70.90;;;;;;5032530;28;20041;-83
2023/07/16 11:37:30;;;;;;;7.20;2.92;;;37.30;71.10;;;;;;5015566;28;20555;-86
2023/07/16 11:39:57;;;;;;;9.68;3.30;;;37.50;70.40;;;;;;5032101;28;20026;-87
2023/07/16 11:42:44;;;;;;;7.15;2.80;;;37.90;70.60;;;;;;5015422;28;20036;-87
2023/07/16 11:45:26;;;;;;;6.63;3.08;;;38.30;70.60;;;;;;5030085;28;20034;-87
2023/07/16 11:47:52;;;;;;;7.38;2.72;;;38.80;69.20;;;;;;5032118;28;20044;-87
2023/07/16 11:50:17;;;;;;;5.57;3.17;;;39.10;68.60;;;;;;5033332;28;20139;-86
2023/07/16 11:52:55;;;;;;;7.15;3.53;;;39.30;67.70;;;;;;5016237;28;20095;-83
2023/07/16 11:55:22;;;;;;;8.75;3.10;;;39.40;67.20;;;;;;5032825;28;20446;-87
2023/07/16 11:57:47;;;;;;;6.75;3.10;;;39.70;67.60;;;;;;5029369;28;20041;-88
2023/07/16 12:00:14;;;;;;;9.98;2.88;;;39.80;67.00;;;;;;5033046;28;20432;-83
2023/07/16 12:02:39;;;;;;;6.55;3.47;;;40.00;66.80;;;;;;5014181;28;20037;-89
2023/07/16 12:05:06;;;;;;;5.97;3.20;;;40.10;66.40;;;;;;5034793;28;20022;-84
2023/07/16 12:07:42;;;;;;;5.03;2.55;;;40.20;66.40;;;;;;5036542;28;20025;-83
2023/07/16 12:10:08;;;;;;;7.22;3.25;;;40.30;65.90;;;;;;5014828;28;20103;-85
2023/07/16 12:12:38;;;;;;;6.50;2.65;;;40.40;65.80;;;;;;5028627;28;20029;-89
2023/07/16 12:15:08;;;;;;;8.48;3.33;;;40.40;65.20;;;;;;5030154;28;20033;-87
2023/07/16 12:17:34;;;;;;;5.60;2.85;;;40.40;65.20;;;;;;5008337;28;20077;-87
2023/07/16 12:20:00;;;;;;;8.23;2.90;;;40.60;65.20;;;;;;5033604;28;20057;-87
2023/07/16 12:22:27;;;;;;;5.97;2.83;;;40.70;64.40;;;;;;5012048;28;20033;-90
2023/07/16 12:24:53;;;;;;;6.28;3.33;;;40.80;63.80;;;;;;5013218;28;20025;-92
2023/07/16 12:27:20;;;;;;;6.45;3.00;;;40.90;64.00;;;;;;5033037;28;20037;-88
2023/07/16 12:29:46;;;;;;;6.28;3.40;;;41.00;64.00;;;;;;5030591;28;20090;-87
2023/07/16 12:32:14;;;;;;;5.45;2.60;;;41.00;63.20;;;;;;5032169;28;20120;-86
2023/07/16 12:34:40;;;;;;;8.27;2.88;;;41.20;62.80;;;;;;5012884;28;20037;-85
2023/07/16 12:37:06;;;;;;;7.47;2.72;;;41.20;61.80;;;;;;5014185;28;20083;-85
2023/07/16 12:39:32;;;;;;;8.43;2.80;;;41.40;62.00;;;;;;5013272;28;20027;-86
2023/07/16 12:41:58;;;;;;;9.00;2.97;;;41.40;61.80;;;;;;5012750;28;20029;-82
2023/07/16 12:44:27;;;;;;;4.82;2.45;;;41.50;61.80;;;;;;5013062;28;20034;-80
2023/07/16 12:46:52;;;;;;;6.93;3.03;;;41.60;61.30;;;;;;5032651;28;20029;-86
2023/07/16 12:49:19;;;;;;;6.32;2.80;;;41.70;60.90;;;;;;5032649;28;20465;-85